sensor_id;sensor_type;location;lat;lon;timestamp;P1;durP1;ratioP1;P2;durP2;ratioP2
13590;SDS011;6866;50.778;7.206;2023-06-14T00:00:18;7.07;;;4.38;;
13590;SDS011;6866;50.778;7.206;2023-06-14T00:02:43;9.18;;;4.40;;
13590;SDS011;6866;50.778;7.206;2023-06-14T00:05:09;7.63;;;4.70;;
13590;SDS011;6866;50.778;7.206;2023-06-14T00:07:40;6.45;;;4.38;;
13590;SDS011;6866;50.778;7.206;2023-06-14T00:10:13;8.65;;;4.50;;
13590;SDS011;6866;50.778;7.206;2023-06-14T00:12:39;7.40;;;4.45;;
13590;SDS011;6866;50.778;7.206;2023-06-14T00:15:07;8.23;;;4.78;;
13590;SDS011;6866;50.778;7.206;2023-06-14T00:17:34;8.13;;;4.65;;
13590;SDS011;6866;50.778;7.206;2023-06-14T00:20:02;8.27;;;4.85;;
13590;SDS011;6866;50.778;7.206;2023-06-14T00:22:31;9.88;;;4.90;;
13590;SDS011;6866;50.778;7.206;2023-06-14T00:24:57;8.75;;;4.60;;
13590;SDS011;6866;50.778;7.206;2023-06-14T00:27:23;6.88;;;4.93;;
13590;SDS011;6866;50.778;7.206;2023-06-14T00:29:49;8.57;;;5.10;;
13590;SDS011;6866;50.778;7.206;2023-06-14T00:32:15;8.55;;;5.05;;
13590;SDS011;6866;50.778;7.206;2023-06-14T00:34:41;12.73;;;4.90;;
13590;SDS011;6866;50.778;7.206;2023-06-14T00:37:06;7.80;;;4.80;;
13590;SDS011;6866;50.778;7.206;2023-06-14T00:39:32;8.27;;;5.13;;
13590;SDS011;6866;50.778;7.206;2023-06-14T00:41:57;9.43;;;4.82;;
13590;SDS011;6866;50.778;7.206;2023-06-14T00:44:24;10.15;;;4.78;;
13590;SDS011;6866;50.778;7.206;2023-06-14T00:46:50;10.13;;;5.25;;
13590;SDS011;6866;50.778;7.206;2023-06-14T00:49:16;6.85;;;4.75;;
13590;SDS011;6866;50.778;7.206;2023-06-14T00:51:44;6.95;;;4.82;;
13590;SDS011;6866;50.778;7.206;2023-06-14T00:54:10;8.25;;;4.80;;
13590;SDS011;6866;50.778;7.206;2023-06-14T00:56:36;9.80;;;5.07;;
13590;SDS011;6866;50.778;7.206;2023-06-14T00:59:02;7.60;;;4.80;;
13590;SDS011;6866;50.778;7.206;2023-06-14T01:04:03;7.05;;;4.85;;
13590;SDS011;6866;50.778;7.206;2023-06-14T01:12:14;8.10;;;4.80;;
13590;SDS011;6866;50.778;7.206;2023-06-14T01:14:49;8.02;;;4.63;;
13590;SDS011;6866;50.778;7.206;2023-06-14T01:17:16;8.25;;;5.05;;
13590;SDS011;6866;50.778;7.206;2023-06-14T01:19:42;7.22;;;4.70;;
13590;SDS011;6866;50.778;7.206;2023-06-14T01:22:09;7.70;;;5.45;;
13590;SDS011;6866;50.778;7.206;2023-06-14T01:24:35;8.93;;;5.10;;
13590;SDS011;6866;50.778;7.206;2023-06-14T01:27:01;7.53;;;5.05;;
13590;SDS011;6866;50.778;7.206;2023-06-14T01:29:27;8.50;;;4.90;;
13590;SDS011;6866;50.778;7.206;2023-06-14T01:31:58;8.63;;;4.88;;
13590;SDS011;6866;50.778;7.206;2023-06-14T01:34:27;10.75;;;5.15;;
13590;SDS011;6866;50.778;7.206;2023-06-14T01:36:52;10.13;;;4.82;;
13590;SDS011;6866;50.778;7.206;2023-06-14T01:39:21;9.52;;;5.10;;
13590;SDS011;6866;50.778;7.206;2023-06-14T01:41:48;7.60;;;5.00;;
13590;SDS011;6866;50.778;7.206;2023-06-14T01:44:30;10.10;;;4.90;;
13590;SDS011;6866;50.778;7.206;2023-06-14T01:46:56;9.20;;;5.13;;
13590;SDS011;6866;50.778;7.206;2023-06-14T01:49:22;10.38;;;4.88;;
13590;SDS011;6866;50.778;7.206;2023-06-14T01:51:48;9.27;;;5.30;;
13590;SDS011;6866;50.778;7.206;2023-06-14T01:54:13;7.85;;;5.07;;
13590;SDS011;6866;50.778;7.206;2023-06-14T01:56:39;7.63;;;5.60;;
13590;SDS011;6866;50.778;7.206;2023-06-14T01:59:04;9.35;;;5.07;;
13590;SDS011;6866;50.778;7.206;2023-06-14T02:01:30;8.40;;;5.55;;
13590;SDS011;6866;50.778;7.206;2023-06-14T02:03:56;11.65;;;5.75;;
13590;SDS011;6866;50.778;7.206;2023-06-14T02:06:21;10.23;;;5.35;;
13590;SDS011;6866;50.778;7.206;2023-06-14T02:08:47;7.50;;;5.07;;
13590;SDS011;6866;50.778;7.206;2023-06-14T02:11:12;11.85;;;5.55;;
13590;SDS011;6866;50.778;7.206;2023-06-14T02:13:38;9.63;;;5.35;;
13590;SDS011;6866;50.778;7.206;2023-06-14T02:16:03;8.88;;;5.22;;
13590;SDS011;6866;50.778;7.206;2023-06-14T02:18:29;8.40;;;5.18;;
13590;SDS011;6866;50.778;7.206;2023-06-14T02:20:54;9.35;;;5.90;;
13590;SDS011;6866;50.778;7.206;2023-06-14T02:23:20;8.45;;;5.85;;
13590;SDS011;6866;50.778;7.206;2023-06-14T02:25:46;12.02;;;5.32;;
13590;SDS011;6866;50.778;7.206;2023-06-14T02:28:11;7.05;;;4.95;;
13590;SDS011;6866;50.778;7.206;2023-06-14T02:30:37;9.80;;;5.72;;
13590;SDS011;6866;50.778;7.206;2023-06-14T02:33:02;10.55;;;5.53;;
13590;SDS011;6866;50.778;7.206;2023-06-14T02:35:29;8.65;;;5.55;;
13590;SDS011;6866;50.778;7.206;2023-06-14T02:37:55;9.90;;;5.53;;
13590;SDS011;6866;50.778;7.206;2023-06-14T02:40:20;10.15;;;5.93;;
13590;SDS011;6866;50.778;7.206;2023-06-14T02:42:46;8.85;;;5.60;;
13590;SDS011;6866;50.778;7.206;2023-06-14T02:45:12;10.10;;;5.05;;
13590;SDS011;6866;50.778;7.206;2023-06-14T02:47:37;9.50;;;5.20;;
13590;SDS011;6866;50.778;7.206;2023-06-14T02:50:03;9.27;;;5.57;;
13590;SDS011;6866;50.778;7.206;2023-06-14T02:52:28;7.63;;;5.28;;
13590;SDS011;6866;50.778;7.206;2023-06-14T02:54:54;9.25;;;5.75;;
13590;SDS011;6866;50.778;7.206;2023-06-14T02:57:20;9.77;;;5.50;;
13590;SDS011;6866;50.778;7.206;2023-06-14T02:59:46;8.00;;;5.78;;
13590;SDS011;6866;50.778;7.206;2023-06-14T03:02:12;9.43;;;6.13;;
13590;SDS011;6866;50.778;7.206;2023-06-14T03:04:37;9.63;;;5.80;;
13590;SDS011;6866;50.778;7.206;2023-06-14T03:07:03;9.00;;;5.35;;
13590;SDS011;6866;50.778;7.206;2023-06-14T03:09:34;8.63;;;5.60;;
13590;SDS011;6866;50.778;7.206;2023-06-14T03:12:01;8.43;;;5.68;;
13590;SDS011;6866;50.778;7.206;2023-06-14T03:14:28;9.77;;;5.78;;
13590;SDS011;6866;50.778;7.206;2023-06-14T03:16:55;8.75;;;6.10;;
13590;SDS011;6866;50.778;7.206;2023-06-14T03:19:21;9.18;;;5.88;;
13590;SDS011;6866;50.778;7.206;2023-06-14T03:21:47;9.73;;;6.50;;
13590;SDS011;6866;50.778;7.206;2023-06-14T03:24:14;9.10;;;5.82;;
13590;SDS011;6866;50.778;7.206;2023-06-14T03:26:41;8.38;;;5.40;;
13590;SDS011;6866;50.778;7.206;2023-06-14T03:29:07;8.13;;;5.65;;
13590;SDS011;6866;50.778;7.206;2023-06-14T03:31:33;9.57;;;6.15;;
13590;SDS011;6866;50.778;7.206;2023-06-14T03:33:59;11.13;;;5.63;;
13590;SDS011;6866;50.778;7.206;2023-06-14T03:36:28;9.48;;;6.00;;
13590;SDS011;6866;50.778;7.206;2023-06-14T03:38:53;10.25;;;5.57;;
13590;SDS011;6866;50.778;7.206;2023-06-14T03:41:20;9.98;;;6.10;;
13590;SDS011;6866;50.778;7.206;2023-06-14T03:43:46;8.30;;;5.38;;
13590;SDS011;6866;50.778;7.206;2023-06-14T03:46:11;8.75;;;5.43;;
13590;SDS011;6866;50.778;7.206;2023-06-14T03:48:37;10.88;;;5.50;;
13590;SDS011;6866;50.778;7.206;2023-06-14T03:51:03;9.27;;;5.75;;
13590;SDS011;6866;50.778;7.206;2023-06-14T03:53:29;10.43;;;6.47;;
13590;SDS011;6866;50.778;7.206;2023-06-14T03:55:54;11.00;;;5.80;;
13590;SDS011;6866;50.778;7.206;2023-06-14T03:58:20;8.38;;;5.50;;
13590;SDS011;6866;50.778;7.206;2023-06-14T04:00:46;9.18;;;5.80;;
13590;SDS011;6866;50.778;7.206;2023-06-14T04:03:12;11.25;;;6.30;;
13590;SDS011;6866;50.778;7.206;2023-06-14T04:05:38;8.32;;;5.72;;
13590;SDS011;6866;50.778;7.206;2023-06-14T04:08:07;7.88;;;5.60;;
13590;SDS011;6866;50.778;7.206;2023-06-14T04:10:34;9.40;;;5.40;;
13590;SDS011;6866;50.778;7.206;2023-06-14T04:12:59;10.02;;;6.28;;
13590;SDS011;6866;50.778;7.206;2023-06-14T04:15:25;11.23;;;5.82;;
13590;SDS011;6866;50.778;7.206;2023-06-14T04:17:53;10.20;;;6.05;;
13590;SDS011;6866;50.778;7.206;2023-06-14T04:20:22;9.43;;;6.22;;
13590;SDS011;6866;50.778;7.206;2023-06-14T04:22:49;12.85;;;5.97;;
13590;SDS011;6866;50.778;7.206;2023-06-14T04:25:14;9.57;;;5.75;;
13590;SDS011;6866;50.778;7.206;2023-06-14T04:27:40;9.18;;;6.20;;
13590;SDS011;6866;50.778;7.206;2023-06-14T04:30:06;9.30;;;5.95;;
13590;SDS011;6866;50.778;7.206;2023-06-14T04:32:32;9.15;;;5.55;;
13590;SDS011;6866;50.778;7.206;2023-06-14T04:35:05;9.27;;;5.70;;
13590;SDS011;6866;50.778;7.206;2023-06-14T04:37:32;13.43;;;6.55;;
13590;SDS011;6866;50.778;7.206;2023-06-14T04:39:58;10.50;;;6.30;;
13590;SDS011;6866;50.778;7.206;2023-06-14T04:42:23;12.05;;;6.13;;
13590;SDS011;6866;50.778;7.206;2023-06-14T04:44:55;10.82;;;6.80;;
13590;SDS011;6866;50.778;7.206;2023-06-14T04:47:21;9.30;;;6.45;;
13590;SDS011;6866;50.778;7.206;2023-06-14T04:49:47;11.07;;;6.32;;
13590;SDS011;6866;50.778;7.206;2023-06-14T04:52:13;10.98;;;7.43;;
13590;SDS011;6866;50.778;7.206;2023-06-14T04:54:41;17.83;;;6.15;;
13590;SDS011;6866;50.778;7.206;2023-06-14T04:57:07;12.90;;;6.70;;
13590;SDS011;6866;50.778;7.206;2023-06-14T04:59:34;13.93;;;6.97;;
13590;SDS011;6866;50.778;7.206;2023-06-14T05:02:00;15.40;;;6.97;;
13590;SDS011;6866;50.778;7.206;2023-06-14T05:04:26;19.42;;;7.00;;
13590;SDS011;6866;50.778;7.206;2023-06-14T05:06:53;15.65;;;6.93;;
13590;SDS011;6866;50.778;7.206;2023-06-14T05:09:21;18.85;;;6.93;;
13590;SDS011;6866;50.778;7.206;2023-06-14T05:11:47;15.30;;;6.97;;
13590;SDS011;6866;50.778;7.206;2023-06-14T05:14:13;16.60;;;7.50;;
13590;SDS011;6866;50.778;7.206;2023-06-14T05:16:39;21.45;;;6.57;;
13590;SDS011;6866;50.778;7.206;2023-06-14T05:19:05;20.77;;;7.00;;
13590;SDS011;6866;50.778;7.206;2023-06-14T05:21:31;22.63;;;6.28;;
13590;SDS011;6866;50.778;7.206;2023-06-14T05:23:58;18.85;;;6.90;;
13590;SDS011;6866;50.778;7.206;2023-06-14T05:26:24;21.65;;;6.00;;
13590;SDS011;6866;50.778;7.206;2023-06-14T05:28:53;17.77;;;5.68;;
13590;SDS011;6866;50.778;7.206;2023-06-14T05:33:48;19.35;;;6.28;;
13590;SDS011;6866;50.778;7.206;2023-06-14T05:36:14;14.70;;;5.38;;
13590;SDS011;6866;50.778;7.206;2023-06-14T05:38:40;13.70;;;5.40;;
13590;SDS011;6866;50.778;7.206;2023-06-14T05:41:05;10.90;;;4.30;;
13590;SDS011;6866;50.778;7.206;2023-06-14T05:43:31;13.30;;;4.15;;
13590;SDS011;6866;50.778;7.206;2023-06-14T05:45:56;10.32;;;3.97;;
13590;SDS011;6866;50.778;7.206;2023-06-14T05:48:22;11.18;;;4.45;;
13590;SDS011;6866;50.778;7.206;2023-06-14T05:50:48;9.65;;;3.90;;
13590;SDS011;6866;50.778;7.206;2023-06-14T05:53:13;11.18;;;4.28;;
13590;SDS011;6866;50.778;7.206;2023-06-14T05:55:39;8.95;;;3.90;;
13590;SDS011;6866;50.778;7.206;2023-06-14T05:58:04;8.68;;;4.15;;
13590;SDS011;6866;50.778;7.206;2023-06-14T06:00:30;8.57;;;3.78;;
13590;SDS011;6866;50.778;7.206;2023-06-14T06:02:56;9.65;;;3.88;;
13590;SDS011;6866;50.778;7.206;2023-06-14T06:05:22;6.78;;;3.67;;
13590;SDS011;6866;50.778;7.206;2023-06-14T06:07:48;6.45;;;3.45;;
13590;SDS011;6866;50.778;7.206;2023-06-14T06:10:14;9.38;;;3.75;;
13590;SDS011;6866;50.778;7.206;2023-06-14T06:12:41;10.50;;;3.92;;
13590;SDS011;6866;50.778;7.206;2023-06-14T06:15:07;7.68;;;3.50;;
13590;SDS011;6866;50.778;7.206;2023-06-14T06:17:36;9.93;;;3.17;;
13590;SDS011;6866;50.778;7.206;2023-06-14T06:20:03;9.80;;;3.40;;
13590;SDS011;6866;50.778;7.206;2023-06-14T06:22:30;7.97;;;3.22;;
13590;SDS011;6866;50.778;7.206;2023-06-14T06:24:56;6.72;;;3.38;;
13590;SDS011;6866;50.778;7.206;2023-06-14T06:27:21;7.95;;;3.30;;
13590;SDS011;6866;50.778;7.206;2023-06-14T06:29:47;6.45;;;3.08;;
13590;SDS011;6866;50.778;7.206;2023-06-14T06:32:13;6.70;;;3.08;;
13590;SDS011;6866;50.778;7.206;2023-06-14T06:34:42;5.80;;;3.10;;
13590;SDS011;6866;50.778;7.206;2023-06-14T06:37:08;5.10;;;2.95;;
13590;SDS011;6866;50.778;7.206;2023-06-14T06:39:33;7.28;;;3.13;;
13590;SDS011;6866;50.778;7.206;2023-06-14T06:41:59;9.98;;;3.15;;
13590;SDS011;6866;50.778;7.206;2023-06-14T06:44:24;5.35;;;3.35;;
13590;SDS011;6866;50.778;7.206;2023-06-14T06:46:50;4.90;;;2.92;;
13590;SDS011;6866;50.778;7.206;2023-06-14T06:49:15;5.53;;;2.85;;
13590;SDS011;6866;50.778;7.206;2023-06-14T07:18:26;8.20;;;2.47;;
13590;SDS011;6866;50.778;7.206;2023-06-14T07:28:13;5.35;;;2.22;;
13590;SDS011;6866;50.778;7.206;2023-06-14T07:42:47;2.90;;;1.87;;
13590;SDS011;6866;50.778;7.206;2023-06-14T07:45:13;4.80;;;1.90;;
13590;SDS011;6866;50.778;7.206;2023-06-14T07:47:39;5.95;;;1.92;;
13590;SDS011;6866;50.778;7.206;2023-06-14T08:36:11;4.53;;;1.52;;
13590;SDS011;6866;50.778;7.206;2023-06-14T08:41:03;3.50;;;1.90;;
13590;SDS011;6866;50.778;7.206;2023-06-14T08:48:28;3.88;;;1.50;;
13590;SDS011;6866;50.778;7.206;2023-06-14T08:50:57;6.72;;;1.60;;
13590;SDS011;6866;50.778;7.206;2023-06-14T08:53:30;3.28;;;1.55;;
13590;SDS011;6866;50.778;7.206;2023-06-14T08:55:59;3.65;;;1.52;;
13590;SDS011;6866;50.778;7.206;2023-06-14T08:58:30;5.40;;;1.55;;
13590;SDS011;6866;50.778;7.206;2023-06-14T09:00:57;3.40;;;1.45;;
13590;SDS011;6866;50.778;7.206;2023-06-14T09:03:23;4.50;;;1.95;;
13590;SDS011;6866;50.778;7.206;2023-06-14T09:05:56;4.60;;;1.83;;
13590;SDS011;6866;50.778;7.206;2023-06-14T09:08:23;2.92;;;1.48;;
13590;SDS011;6866;50.778;7.206;2023-06-14T09:10:50;5.32;;;1.77;;
13590;SDS011;6866;50.778;7.206;2023-06-14T09:13:16;2.58;;;1.50;;
13590;SDS011;6866;50.778;7.206;2023-06-14T09:15:42;2.97;;;1.58;;
13590;SDS011;6866;50.778;7.206;2023-06-14T09:18:08;4.35;;;1.60;;
13590;SDS011;6866;50.778;7.206;2023-06-14T09:20:35;4.13;;;1.70;;
13590;SDS011;6866;50.778;7.206;2023-06-14T09:23:02;4.25;;;1.65;;
13590;SDS011;6866;50.778;7.206;2023-06-14T09:25:30;5.13;;;2.00;;
13590;SDS011;6866;50.778;7.206;2023-06-14T09:27:55;3.50;;;1.83;;
13590;SDS011;6866;50.778;7.206;2023-06-14T09:30:21;3.80;;;1.90;;
13590;SDS011;6866;50.778;7.206;2023-06-14T09:32:46;3.75;;;1.85;;
13590;SDS011;6866;50.778;7.206;2023-06-14T09:35:12;3.22;;;1.70;;
13590;SDS011;6866;50.778;7.206;2023-06-14T09:37:42;4.33;;;1.70;;
13590;SDS011;6866;50.778;7.206;2023-06-14T09:40:08;3.92;;;1.77;;
13590;SDS011;6866;50.778;7.206;2023-06-14T09:42:34;3.25;;;1.73;;
13590;SDS011;6866;50.778;7.206;2023-06-14T09:45:02;4.53;;;2.10;;
13590;SDS011;6866;50.778;7.206;2023-06-14T09:47:28;3.13;;;1.80;;
13590;SDS011;6866;50.778;7.206;2023-06-14T09:49:54;5.43;;;1.90;;
13590;SDS011;6866;50.778;7.206;2023-06-14T09:52:20;3.20;;;1.67;;
13590;SDS011;6866;50.778;7.206;2023-06-14T09:54:47;3.47;;;1.85;;
13590;SDS011;6866;50.778;7.206;2023-06-14T09:57:17;3.13;;;1.60;;
13590;SDS011;6866;50.778;7.206;2023-06-14T09:59:46;3.88;;;1.70;;
13590;SDS011;6866;50.778;7.206;2023-06-14T10:05:12;4.03;;;1.80;;
13590;SDS011;6866;50.778;7.206;2023-06-14T10:07:52;4.20;;;1.73;;
13590;SDS011;6866;50.778;7.206;2023-06-14T10:10:21;3.65;;;1.80;;
13590;SDS011;6866;50.778;7.206;2023-06-14T10:12:47;4.22;;;1.70;;
13590;SDS011;6866;50.778;7.206;2023-06-14T10:15:30;3.92;;;1.83;;
13590;SDS011;6866;50.778;7.206;2023-06-14T10:18:08;3.03;;;1.75;;
13590;SDS011;6866;50.778;7.206;2023-06-14T10:21:05;3.97;;;1.77;;
13590;SDS011;6866;50.778;7.206;2023-06-14T10:23:40;6.18;;;1.85;;
13590;SDS011;6866;50.778;7.206;2023-06-14T10:26:07;4.95;;;1.75;;
13590;SDS011;6866;50.778;7.206;2023-06-14T10:28:34;4.13;;;1.70;;
13590;SDS011;6866;50.778;7.206;2023-06-14T10:31:03;4.03;;;1.80;;
13590;SDS011;6866;50.778;7.206;2023-06-14T10:33:29;6.47;;;1.90;;
13590;SDS011;6866;50.778;7.206;2023-06-14T10:38:59;4.13;;;1.88;;
13590;SDS011;6866;50.778;7.206;2023-06-14T10:41:34;5.30;;;1.50;;
13590;SDS011;6866;50.778;7.206;2023-06-14T10:46:40;6.28;;;1.92;;
13590;SDS011;6866;50.778;7.206;2023-06-14T10:49:11;4.20;;;2.10;;
13590;SDS011;6866;50.778;7.206;2023-06-14T10:51:41;4.20;;;2.20;;
13590;SDS011;6866;50.778;7.206;2023-06-14T10:54:13;5.22;;;1.90;;
13590;SDS011;6866;50.778;7.206;2023-06-14T10:56:45;3.03;;;1.50;;
13590;SDS011;6866;50.778;7.206;2023-06-14T10:59:12;3.28;;;1.80;;
13590;SDS011;6866;50.778;7.206;2023-06-14T11:01:45;6.55;;;1.70;;
13590;SDS011;6866;50.778;7.206;2023-06-14T11:04:23;4.10;;;1.80;;
13590;SDS011;6866;50.778;7.206;2023-06-14T11:07:05;4.35;;;1.92;;
13590;SDS011;6866;50.778;7.206;2023-06-14T11:09:58;2.88;;;1.80;;
13590;SDS011;6866;50.778;7.206;2023-06-14T11:12:32;4.70;;;1.70;;
13590;SDS011;6866;50.778;7.206;2023-06-14T11:15:00;5.50;;;1.70;;
13590;SDS011;6866;50.778;7.206;2023-06-14T11:17:26;5.40;;;1.80;;
13590;SDS011;6866;50.778;7.206;2023-06-14T11:20:07;2.63;;;1.40;;
13590;SDS011;6866;50.778;7.206;2023-06-14T11:22:41;6.93;;;1.60;;
13590;SDS011;6866;50.778;7.206;2023-06-14T11:25:10;2.90;;;1.65;;
13590;SDS011;6866;50.778;7.206;2023-06-14T11:27:36;5.40;;;1.63;;
13590;SDS011;6866;50.778;7.206;2023-06-14T11:30:02;6.57;;;1.80;;
13590;SDS011;6866;50.778;7.206;2023-06-14T11:32:28;4.88;;;1.30;;
13590;SDS011;6866;50.778;7.206;2023-06-14T11:34:56;3.45;;;1.42;;
13590;SDS011;6866;50.778;7.206;2023-06-14T11:37:23;2.80;;;1.30;;
13590;SDS011;6866;50.778;7.206;2023-06-14T11:39:51;4.93;;;1.27;;
13590;SDS011;6866;50.778;7.206;2023-06-14T11:42:16;3.15;;;1.52;;
13590;SDS011;6866;50.778;7.206;2023-06-14T11:44:45;3.92;;;1.35;;
13590;SDS011;6866;50.778;7.206;2023-06-14T11:47:11;3.97;;;1.40;;
13590;SDS011;6866;50.778;7.206;2023-06-14T11:49:36;4.78;;;1.13;;
13590;SDS011;6866;50.778;7.206;2023-06-14T11:52:02;2.15;;;1.10;;
13590;SDS011;6866;50.778;7.206;2023-06-14T11:54:27;4.93;;;1.40;;
13590;SDS011;6866;50.778;7.206;2023-06-14T11:56:53;3.53;;;1.50;;
13590;SDS011;6866;50.778;7.206;2023-06-14T11:59:20;3.83;;;1.30;;
13590;SDS011;6866;50.778;7.206;2023-06-14T12:01:47;8.00;;;1.40;;
13590;SDS011;6866;50.778;7.206;2023-06-14T12:04:13;4.20;;;1.10;;
13590;SDS011;6866;50.778;7.206;2023-06-14T12:06:38;2.58;;;1.30;;
13590;SDS011;6866;50.778;7.206;2023-06-14T12:09:04;5.70;;;1.30;;
13590;SDS011;6866;50.778;7.206;2023-06-14T12:11:33;6.43;;;1.50;;
13590;SDS011;6866;50.778;7.206;2023-06-14T12:14:00;2.97;;;1.27;;
13590;SDS011;6866;50.778;7.206;2023-06-14T12:16:32;20.10;;;1.90;;
13590;SDS011;6866;50.778;7.206;2023-06-14T12:19:12;8.55;;;1.73;;
13590;SDS011;6866;50.778;7.206;2023-06-14T12:21:39;3.08;;;1.40;;
13590;SDS011;6866;50.778;7.206;2023-06-14T12:24:06;5.30;;;1.30;;
13590;SDS011;6866;50.778;7.206;2023-06-14T12:26:32;6.10;;;1.67;;
13590;SDS011;6866;50.778;7.206;2023-06-14T12:28:58;9.05;;;1.70;;
13590;SDS011;6866;50.778;7.206;2023-06-14T12:31:24;6.38;;;1.50;;
13590;SDS011;6866;50.778;7.206;2023-06-14T12:33:51;3.03;;;1.35;;
13590;SDS011;6866;50.778;7.206;2023-06-14T12:36:17;9.98;;;2.00;;
13590;SDS011;6866;50.778;7.206;2023-06-14T12:38:42;4.35;;;1.50;;
13590;SDS011;6866;50.778;7.206;2023-06-14T12:41:08;7.10;;;1.92;;
13590;SDS011;6866;50.778;7.206;2023-06-14T12:43:34;5.13;;;1.45;;
13590;SDS011;6866;50.778;7.206;2023-06-14T12:46:00;5.75;;;1.45;;
13590;SDS011;6866;50.778;7.206;2023-06-14T12:48:25;4.63;;;1.60;;
13590;SDS011;6866;50.778;7.206;2023-06-14T12:50:59;3.83;;;1.65;;
13590;SDS011;6866;50.778;7.206;2023-06-14T12:53:24;6.80;;;1.60;;
13590;SDS011;6866;50.778;7.206;2023-06-14T12:55:50;4.65;;;1.50;;
13590;SDS011;6866;50.778;7.206;2023-06-14T12:58:16;5.82;;;1.67;;
13590;SDS011;6866;50.778;7.206;2023-06-14T13:00:44;6.25;;;1.77;;
13590;SDS011;6866;50.778;7.206;2023-06-14T13:03:10;6.80;;;1.58;;
13590;SDS011;6866;50.778;7.206;2023-06-14T13:05:36;5.00;;;1.85;;
13590;SDS011;6866;50.778;7.206;2023-06-14T13:08:02;5.10;;;1.58;;
13590;SDS011;6866;50.778;7.206;2023-06-14T13:10:27;6.53;;;1.90;;
13590;SDS011;6866;50.778;7.206;2023-06-14T13:12:53;4.50;;;1.63;;
13590;SDS011;6866;50.778;7.206;2023-06-14T13:15:19;6.85;;;1.90;;
13590;SDS011;6866;50.778;7.206;2023-06-14T13:17:45;5.85;;;2.00;;
13590;SDS011;6866;50.778;7.206;2023-06-14T13:20:13;4.25;;;2.00;;
13590;SDS011;6866;50.778;7.206;2023-06-14T13:22:40;9.20;;;2.05;;
13590;SDS011;6866;50.778;7.206;2023-06-14T13:25:06;8.77;;;2.13;;
13590;SDS011;6866;50.778;7.206;2023-06-14T13:27:32;4.25;;;2.20;;
13590;SDS011;6866;50.778;7.206;2023-06-14T13:29:57;3.80;;;1.90;;
13590;SDS011;6866;50.778;7.206;2023-06-14T13:32:23;3.33;;;1.70;;
13590;SDS011;6866;50.778;7.206;2023-06-14T13:34:49;5.97;;;1.83;;
13590;SDS011;6866;50.778;7.206;2023-06-14T13:37:15;5.93;;;1.60;;
13590;SDS011;6866;50.778;7.206;2023-06-14T13:39:41;3.40;;;1.60;;
13590;SDS011;6866;50.778;7.206;2023-06-14T13:42:07;4.38;;;1.70;;
13590;SDS011;6866;50.778;7.206;2023-06-14T13:44:32;4.18;;;1.60;;
13590;SDS011;6866;50.778;7.206;2023-06-14T13:46:59;4.30;;;1.52;;
13590;SDS011;6866;50.778;7.206;2023-06-14T13:49:25;2.40;;;1.45;;
13590;SDS011;6866;50.778;7.206;2023-06-14T13:51:50;3.47;;;1.60;;
13590;SDS011;6866;50.778;7.206;2023-06-14T13:54:18;7.50;;;1.83;;
13590;SDS011;6866;50.778;7.206;2023-06-14T13:56:46;5.68;;;1.90;;
13590;SDS011;6866;50.778;7.206;2023-06-14T13:59:12;5.20;;;1.70;;
13590;SDS011;6866;50.778;7.206;2023-06-14T14:01:37;3.47;;;1.80;;
13590;SDS011;6866;50.778;7.206;2023-06-14T14:04:03;4.28;;;1.60;;
13590;SDS011;6866;50.778;7.206;2023-06-14T14:06:29;3.08;;;1.63;;
13590;SDS011;6866;50.778;7.206;2023-06-14T14:08:55;2.97;;;1.52;;
13590;SDS011;6866;50.778;7.206;2023-06-14T14:11:21;3.92;;;2.03;;
13590;SDS011;6866;50.778;7.206;2023-06-14T14:13:47;3.45;;;1.70;;
13590;SDS011;6866;50.778;7.206;2023-06-14T14:16:12;5.18;;;1.73;;
13590;SDS011;6866;50.778;7.206;2023-06-14T14:18:38;5.53;;;1.67;;
13590;SDS011;6866;50.778;7.206;2023-06-14T14:21:04;6.43;;;1.80;;
13590;SDS011;6866;50.778;7.206;2023-06-14T14:23:30;11.57;;;1.92;;
13590;SDS011;6866;50.778;7.206;2023-06-14T14:25:56;5.50;;;2.10;;
13590;SDS011;6866;50.778;7.206;2023-06-14T14:28:21;4.15;;;1.80;;
13590;SDS011;6866;50.778;7.206;2023-06-14T14:30:47;6.15;;;1.83;;
13590;SDS011;6866;50.778;7.206;2023-06-14T14:33:13;3.58;;;2.10;;
13590;SDS011;6866;50.778;7.206;2023-06-14T14:35:42;4.13;;;1.80;;
13590;SDS011;6866;50.778;7.206;2023-06-14T14:38:11;3.55;;;1.95;;
13590;SDS011;6866;50.778;7.206;2023-06-14T14:40:37;5.25;;;1.75;;
13590;SDS011;6866;50.778;7.206;2023-06-14T14:43:03;3.45;;;2.00;;
13590;SDS011;6866;50.778;7.206;2023-06-14T14:45:28;5.25;;;1.90;;
13590;SDS011;6866;50.778;7.206;2023-06-14T14:47:54;3.13;;;1.83;;
13590;SDS011;6866;50.778;7.206;2023-06-14T14:50:19;4.15;;;2.00;;
13590;SDS011;6866;50.778;7.206;2023-06-14T14:52:45;4.35;;;1.63;;
13590;SDS011;6866;50.778;7.206;2023-06-14T14:55:11;4.78;;;1.90;;
13590;SDS011;6866;50.778;7.206;2023-06-14T14:57:36;5.43;;;1.80;;
13590;SDS011;6866;50.778;7.206;2023-06-14T15:00:02;4.47;;;2.35;;
13590;SDS011;6866;50.778;7.206;2023-06-14T15:02:29;3.40;;;1.92;;
13590;SDS011;6866;50.778;7.206;2023-06-14T15:04:54;4.03;;;1.77;;
13590;SDS011;6866;50.778;7.206;2023-06-14T15:07:22;4.47;;;1.73;;
13590;SDS011;6866;50.778;7.206;2023-06-14T15:09:47;3.30;;;1.80;;
13590;SDS011;6866;50.778;7.206;2023-06-14T15:12:15;4.32;;;1.67;;
13590;SDS011;6866;50.778;7.206;2023-06-14T15:14:40;4.07;;;1.80;;
13590;SDS011;6866;50.778;7.206;2023-06-14T15:17:06;4.72;;;1.70;;
13590;SDS011;6866;50.778;7.206;2023-06-14T15:19:31;3.45;;;1.70;;
13590;SDS011;6866;50.778;7.206;2023-06-14T15:21:59;3.15;;;1.92;;
13590;SDS011;6866;50.778;7.206;2023-06-14T15:24:24;3.88;;;1.67;;
13590;SDS011;6866;50.778;7.206;2023-06-14T15:26:50;3.53;;;1.80;;
13590;SDS011;6866;50.778;7.206;2023-06-14T15:29:15;5.05;;;1.80;;
13590;SDS011;6866;50.778;7.206;2023-06-14T15:31:41;3.72;;;1.88;;
13590;SDS011;6866;50.778;7.206;2023-06-14T15:34:07;5.60;;;1.70;;
13590;SDS011;6866;50.778;7.206;2023-06-14T15:36:32;4.25;;;1.80;;
13590;SDS011;6866;50.778;7.206;2023-06-14T15:38:58;3.00;;;1.70;;
13590;SDS011;6866;50.778;7.206;2023-06-14T15:41:23;3.63;;;1.67;;
13590;SDS011;6866;50.778;7.206;2023-06-14T15:43:49;3.33;;;1.60;;
13590;SDS011;6866;50.778;7.206;2023-06-14T15:46:14;7.20;;;1.90;;
13590;SDS011;6866;50.778;7.206;2023-06-14T15:48:40;3.03;;;1.83;;
13590;SDS011;6866;50.778;7.206;2023-06-14T15:51:05;4.50;;;1.98;;
13590;SDS011;6866;50.778;7.206;2023-06-14T15:53:31;4.28;;;1.70;;
13590;SDS011;6866;50.778;7.206;2023-06-14T15:55:56;3.45;;;1.88;;
13590;SDS011;6866;50.778;7.206;2023-06-14T15:58:22;8.35;;;2.00;;
13590;SDS011;6866;50.778;7.206;2023-06-14T16:00:47;4.13;;;1.70;;
13590;SDS011;6866;50.778;7.206;2023-06-14T16:03:13;5.38;;;2.30;;
13590;SDS011;6866;50.778;7.206;2023-06-14T16:05:38;3.10;;;1.90;;
13590;SDS011;6866;50.778;7.206;2023-06-14T16:08:04;4.90;;;1.90;;
13590;SDS011;6866;50.778;7.206;2023-06-14T16:10:29;5.80;;;2.10;;
13590;SDS011;6866;50.778;7.206;2023-06-14T16:12:55;3.55;;;1.95;;
13590;SDS011;6866;50.778;7.206;2023-06-14T16:15:21;5.85;;;2.15;;
13590;SDS011;6866;50.778;7.206;2023-06-14T16:17:46;4.85;;;1.92;;
13590;SDS011;6866;50.778;7.206;2023-06-14T16:20:13;4.05;;;1.98;;
13590;SDS011;6866;50.778;7.206;2023-06-14T16:22:38;5.78;;;2.03;;
13590;SDS011;6866;50.778;7.206;2023-06-14T16:25:04;3.97;;;2.00;;
13590;SDS011;6866;50.778;7.206;2023-06-14T16:27:31;4.07;;;2.20;;
13590;SDS011;6866;50.778;7.206;2023-06-14T16:29:57;3.97;;;2.13;;
13590;SDS011;6866;50.778;7.206;2023-06-14T16:32:22;4.05;;;2.10;;
13590;SDS011;6866;50.778;7.206;2023-06-14T16:34:48;4.32;;;2.05;;
13590;SDS011;6866;50.778;7.206;2023-06-14T16:37:13;6.35;;;1.98;;
13590;SDS011;6866;50.778;7.206;2023-06-14T16:39:39;3.78;;;2.00;;
13590;SDS011;6866;50.778;7.206;2023-06-14T16:42:04;4.63;;;1.95;;
13590;SDS011;6866;50.778;7.206;2023-06-14T16:44:30;4.70;;;2.22;;
13590;SDS011;6866;50.778;7.206;2023-06-14T16:46:56;6.40;;;2.20;;
13590;SDS011;6866;50.778;7.206;2023-06-14T16:49:25;3.25;;;1.90;;
13590;SDS011;6866;50.778;7.206;2023-06-14T16:51:50;4.68;;;2.10;;
13590;SDS011;6866;50.778;7.206;2023-06-14T16:54:16;4.03;;;1.95;;
13590;SDS011;6866;50.778;7.206;2023-06-14T16:56:42;4.00;;;2.03;;